Saint Louis, MO

8:22 AM CST on February 25, 2017 (GMT -0600)
Essex and Geyer | | Change Station

Elev 656 ft 38.59 °N, 90.42 °W | Updated 14 seconds ago

Partly Cloudy
Partly Cloudy
27.3 °F
Feels Like 18 °F
N
10.0
Wind Variable Wind from WNW

Today
High -- | Low -- °F
--% Chance of Precip.
Yesterday
High -- | Low -- °F
Precip. -- in
Pressure 30.05 in
Visibility 10.0 miles
Clouds Mostly Cloudy 3100 ft
Windchill 18 °F
Dew Point 10 °F
Humidity 48%
Rainfall 0.00 in
Snow Depth Not available.
6:39 AM 5:50 PM
Waning Crescent, 1% visible
METAR KSTL 251351Z 29016G28KT 10SM BKN031 M02/M10 A3002 RMK AO2 PK WND 31030/1300 SLP174 T10221100
Pressure 30.05 in
Visibility 10.0 miles
Clouds Mostly Cloudy 3100 ft
Windchill 18 °F
Dew Point 10 °F
Humidity 48%
Rainfall 0.00 in
Snow Depth Not available.
6:39 AM 5:50 PM
Waning Crescent, 1% visible
METAR KSTL 251351Z 29016G28KT 10SM BKN031 M02/M10 A3002 RMK AO2 PK WND 31030/1300 SLP174 T10221100

Get Your Daily Forecast Email!

Thanks for signing up!

Be on the lookout for a verification email in your inbox.

You'll start receiving the daily forecast at 8 AM.

×

10-Day Weather Forecast

Almanac

Astronomy

Feb. 25, 2017 Rise Set
Actual Time
Civil Twilight
Nautical Twilight
Astronomical Twilight
Moon
Length of Visible Light
Length of Day
Tomorrow will be .
, % of the Moon is Illuminated

Today's Extremes

State Highs State Lows

Community

WunderPhotos

Upload Photos

1,962,540 photos uploaded!

WunderBlog® & News

Nearby

Air Quality

  Air Quality AQ Index Pollutant
Not available.

Snow Depth

Station Depth Elevation

Earthquake Activity

City Distance Mag. Time & Date
Minimum magnitude displayed is 2.5.

Coastal Water Temperatures

Place Temperature

Stations

Nearby Weather Stations

Station Location Temp. Windchill Dew Point Humidity Wind Precip. Elev Updated Type
                   

Watches & Warnings

There are currently no watches in effect.